Time;durP1;ratioP1;P1;durP2;ratioP2;P2;SDS_P1;SDS_P2;PMS_P1;PMS_P2;Temp;Humidity;BMP_temperature;BMP_pressure;BME280_temperature;BME280_humidity;BME280_pressure;Samples;Min_cycle;Max_cycle;Signal;HPM_P1;HPM_P2
2024/02/12 00:00:11;;;;;;;4.05;1.80;;;;;;;;;;5060549;28;20045;-66
2024/02/12 00:02:39;;;;;;;6.07;1.77;;;;;;;;;;5064765;28;20028;-66
2024/02/12 00:05:06;;;;;;;3.10;1.25;;;;;;;;;;5062225;28;20025;-65
2024/02/12 00:07:32;;;;;;;4.20;1.50;;;;;;;;;;5060224;28;20025;-65
2024/02/12 00:10:05;;;;;;;12.55;1.70;;;;;;;;;;5062217;28;20147;-66
2024/02/12 00:12:34;;;;;;;9.00;1.98;;;;;;;;;;5060208;28;20359;-65
2024/02/12 00:15:00;;;;;;;3.65;1.58;;;;;;;;;;5062566;28;20048;-66
2024/02/12 00:17:30;;;;;;;3.88;1.88;;;;;;;;;;5059406;28;20024;-66
2024/02/12 00:19:56;;;;;;;6.93;1.95;;;;;;;;;;5061236;28;20040;-65
2024/02/12 00:22:23;;;;;;;22.17;8.95;;;;;;;;;;5069248;28;20138;-66
2024/02/12 00:24:49;;;;;;;11.23;4.18;;;;;;;;;;5073044;28;20012;-65
2024/02/12 00:27:16;;;;;;;8.68;2.75;;;;;;;;;;5071393;28;20126;-66
2024/02/12 00:29:42;;;;;;;8.13;2.25;;;;;;;;;;5077985;28;20024;-66
2024/02/12 00:32:10;;;;;;;4.32;2.45;;;;;;;;;;5071504;28;20029;-65
2024/02/12 00:34:37;;;;;;;7.53;2.78;;;;;;;;;;5072812;28;20104;-66
2024/02/12 00:37:03;;;;;;;8.27;3.53;;;;;;;;;;5078164;28;20493;-66
2024/02/12 00:39:30;;;;;;;5.25;2.38;;;;;;;;;;5050974;28;20021;-66
2024/02/12 00:41:57;;;;;;;8.55;2.58;;;;;;;;;;5074541;28;20025;-66
2024/02/12 00:44:23;;;;;;;7.22;2.83;;;;;;;;;;5072420;28;20456;-66
2024/02/12 00:46:54;;;;;;;9.02;2.53;;;;;;;;;;5073088;28;20051;-66
2024/02/12 00:49:20;;;;;;;15.43;2.95;;;;;;;;;;5064235;28;20020;-66
2024/02/12 00:51:46;;;;;;;7.43;2.83;;;;;;;;;;5065132;28;20034;-66
2024/02/12 00:54:14;;;;;;;4.80;2.60;;;;;;;;;;5064552;28;20108;-66
2024/02/12 00:56:44;;;;;;;9.13;3.83;;;;;;;;;;5070926;28;20017;-66
2024/02/12 00:59:16;;;;;;;11.13;3.40;;;;;;;;;;5071635;28;20021;-66
2024/02/12 01:01:44;;;;;;;7.93;2.90;;;;;;;;;;5077624;28;20389;-66
2024/02/12 01:04:10;;;;;;;10.85;3.20;;;;;;;;;;5069936;28;20481;-66
2024/02/12 01:06:36;;;;;;;7.40;3.00;;;;;;;;;;5068387;28;20035;-65
2024/02/12 01:09:05;;;;;;;8.45;2.97;;;;;;;;;;5077670;28;20077;-66
2024/02/12 01:11:31;;;;;;;8.27;3.95;;;;;;;;;;5073925;28;20017;-65
2024/02/12 01:13:57;;;;;;;9.25;2.92;;;;;;;;;;5065946;28;20031;-66
2024/02/12 01:16:24;;;;;;;6.95;3.83;;;;;;;;;;5062706;28;20081;-66
2024/02/12 01:18:51;;;;;;;10.82;4.50;;;;;;;;;;5066265;28;20017;-66
2024/02/12 01:21:17;;;;;;;11.30;4.05;;;;;;;;;;5069571;28;20017;-65
2024/02/12 01:23:44;;;;;;;12.90;5.40;;;;;;;;;;5072607;28;20035;-66
2024/02/12 01:26:13;;;;;;;9.98;5.22;;;;;;;;;;5066016;28;20086;-66
2024/02/12 01:28:39;;;;;;;15.52;5.20;;;;;;;;;;5072367;28;20025;-66
2024/02/12 01:31:09;;;;;;;12.07;5.55;;;;;;;;;;5068928;28;20122;-66
2024/02/12 01:33:35;;;;;;;15.13;4.63;;;;;;;;;;5066525;28;20020;-66
2024/02/12 01:36:01;;;;;;;15.68;6.32;;;;;;;;;;5073727;28;20025;-66
2024/02/12 01:38:27;;;;;;;15.27;5.90;;;;;;;;;;5065422;28;20078;-66
2024/02/12 01:40:53;;;;;;;12.13;5.82;;;;;;;;;;5063949;28;20051;-66
2024/02/12 01:43:30;;;;;;;10.77;6.30;;;;;;;;;;5074519;28;20024;-65
2024/02/12 01:45:56;;;;;;;13.20;7.88;;;;;;;;;;5055872;28;20017;-65
2024/02/12 01:48:22;;;;;;;14.63;6.75;;;;;;;;;;5067982;28;20044;-65
2024/02/12 01:50:48;;;;;;;15.82;7.32;;;;;;;;;;5072421;28;20020;-66
2024/02/12 01:53:14;;;;;;;18.77;7.15;;;;;;;;;;5073537;28;20393;-65
2024/02/12 01:55:41;;;;;;;17.58;8.43;;;;;;;;;;5047949;28;20025;-65
2024/02/12 01:58:07;;;;;;;14.23;8.00;;;;;;;;;;5075228;28;20026;-66
2024/02/12 02:00:33;;;;;;;14.88;7.65;;;;;;;;;;5063742;28;20035;-66
2024/02/12 02:02:59;;;;;;;14.77;8.70;;;;;;;;;;5069246;28;20100;-66
2024/02/12 02:05:25;;;;;;;19.58;8.25;;;;;;;;;;5062894;28;20069;-65
2024/02/12 02:07:56;;;;;;;19.92;9.75;;;;;;;;;;5076460;28;20420;-66
2024/02/12 02:10:23;;;;;;;16.30;8.80;;;;;;;;;;5064496;28;20087;-66
2024/02/12 02:12:49;;;;;;;20.58;10.45;;;;;;;;;;5070205;28;20021;-66
2024/02/12 02:15:16;;;;;;;24.92;10.30;;;;;;;;;;5069920;28;20028;-65
2024/02/12 02:17:42;;;;;;;23.60;11.82;;;;;;;;;;5074133;28;20067;-66
2024/02/12 02:20:10;;;;;;;22.38;11.88;;;;;;;;;;5068062;28;20028;-66
2024/02/12 02:22:37;;;;;;;28.38;12.05;;;;;;;;;;5070146;28;20395;-65
2024/02/12 02:25:04;;;;;;;24.55;12.30;;;;;;;;;;5072303;28;20024;-65
2024/02/12 02:27:30;;;;;;;22.77;12.63;;;;;;;;;;5067598;28;20062;-66
2024/02/12 02:29:56;;;;;;;29.40;13.35;;;;;;;;;;5072464;28;20024;-66
2024/02/12 02:32:22;;;;;;;28.60;12.63;;;;;;;;;;5064413;28;20090;-66
2024/02/12 02:34:48;;;;;;;21.48;11.60;;;;;;;;;;5068727;28;20025;-66
2024/02/12 02:37:14;;;;;;;24.05;12.77;;;;;;;;;;5074010;28;20071;-66
2024/02/12 02:39:40;;;;;;;26.33;11.35;;;;;;;;;;5072862;28;20020;-65
2024/02/12 02:42:06;;;;;;;30.13;14.48;;;;;;;;;;5078287;28;20103;-65
2024/02/12 02:44:33;;;;;;;30.63;14.27;;;;;;;;;;5055497;28;20035;-65
2024/02/12 02:46:59;;;;;;;33.53;15.75;;;;;;;;;;5074362;28;20020;-65
2024/02/12 02:49:26;;;;;;;33.15;13.77;;;;;;;;;;5072400;28;20170;-66
2024/02/12 02:51:52;;;;;;;28.88;14.50;;;;;;;;;;5068740;28;20371;-66
2024/02/12 02:54:18;;;;;;;36.83;16.67;;;;;;;;;;5078349;28;20024;-65
2024/02/12 02:56:44;;;;;;;35.55;15.90;;;;;;;;;;5067687;28;20102;-65
2024/02/12 02:59:10;;;;;;;37.22;16.02;;;;;;;;;;5073643;28;20021;-66
2024/02/12 03:01:36;;;;;;;41.72;16.75;;;;;;;;;;5061811;28;20540;-65
2024/02/12 03:04:01;;;;;;;36.53;16.25;;;;;;;;;;5073072;28;20020;-65
2024/02/12 03:06:27;;;;;;;34.42;17.08;;;;;;;;;;5064250;28;20442;-66
2024/02/12 03:08:54;;;;;;;35.25;16.90;;;;;;;;;;5079340;28;20057;-65
2024/02/12 03:11:21;;;;;;;33.17;16.67;;;;;;;;;;5071455;28;20023;-65
2024/02/12 03:13:48;;;;;;;37.08;16.60;;;;;;;;;;5073994;28;20554;-65
2024/02/12 03:16:15;;;;;;;39.45;18.20;;;;;;;;;;5055619;28;20036;-66
2024/02/12 03:18:41;;;;;;;42.30;17.23;;;;;;;;;;5068265;28;20546;-65
2024/02/12 03:21:09;;;;;;;35.00;17.15;;;;;;;;;;5072784;28;20038;-66
2024/02/12 03:23:35;;;;;;;37.95;17.63;;;;;;;;;;5075116;28;20431;-66
2024/02/12 03:26:02;;;;;;;35.42;16.75;;;;;;;;;;5067291;28;20052;-66
2024/02/12 03:28:28;;;;;;;38.30;18.77;;;;;;;;;;5071695;28;20036;-66
2024/02/12 03:30:54;;;;;;;38.58;16.48;;;;;;;;;;5063822;28;20076;-65
2024/02/12 03:33:20;;;;;;;42.33;18.25;;;;;;;;;;5051698;28;20075;-65
2024/02/12 03:35:46;;;;;;;46.30;18.98;;;;;;;;;;5069339;28;20418;-65
2024/02/12 03:38:12;;;;;;;37.60;18.17;;;;;;;;;;5066263;28;20021;-66
2024/02/12 03:40:38;;;;;;;41.70;20.08;;;;;;;;;;5071937;28;20095;-66
2024/02/12 03:43:09;;;;;;;39.25;18.42;;;;;;;;;;5068137;28;20477;-66
2024/02/12 03:45:35;;;;;;;38.40;19.23;;;;;;;;;;5074715;28;20017;-66
2024/02/12 03:59:51;;;;;;;41.08;18.73;;;;;;;;;;5077893;28;20031;-65
2024/02/12 04:01:54;;;;;;;48.35;21.48;;;;;;;;;;5071641;28;20039;-66
2024/02/12 04:04:20;;;;;;;46.88;20.80;;;;;;;;;;5069902;28;20024;-66
2024/02/12 04:06:46;;;;;;;48.95;21.25;;;;;;;;;;5071159;28;20142;-66
2024/02/12 04:09:12;;;;;;;47.63;21.65;;;;;;;;;;5065563;28;20383;-66
2024/02/12 04:11:41;;;;;;;53.13;22.33;;;;;;;;;;5074510;28;20024;-66
2024/02/12 04:14:09;;;;;;;43.25;20.70;;;;;;;;;;5075919;28;20039;-66
2024/02/12 04:16:36;;;;;;;47.97;22.05;;;;;;;;;;5069527;28;20367;-66
2024/02/12 04:19:03;;;;;;;49.28;21.60;;;;;;;;;;5066400;28;20021;-66
2024/02/12 04:21:32;;;;;;;57.72;22.33;;;;;;;;;;5069247;28;20056;-65
2024/02/12 04:23:58;;;;;;;46.90;22.08;;;;;;;;;;5070373;28;20394;-65
2024/02/12 04:26:25;;;;;;;52.67;21.73;;;;;;;;;;5067766;28;20051;-66
2024/02/12 04:28:51;;;;;;;46.13;20.67;;;;;;;;;;5073982;28;20016;-66
2024/02/12 04:31:17;;;;;;;43.58;21.83;;;;;;;;;;5066129;28;20039;-66
2024/02/12 04:33:44;;;;;;;47.38;22.30;;;;;;;;;;5065911;28;20077;-66
2024/02/12 04:36:14;;;;;;;48.35;21.30;;;;;;;;;;5069348;28;20021;-66
2024/02/12 04:38:40;;;;;;;47.35;19.75;;;;;;;;;;5065857;28;20033;-66
2024/02/12 04:41:06;;;;;;;45.83;21.05;;;;;;;;;;5070996;28;20036;-66
2024/02/12 04:43:35;;;;;;;51.60;21.75;;;;;;;;;;5071220;28;20489;-65
2024/02/12 04:46:01;;;;;;;44.58;20.90;;;;;;;;;;5070241;28;20025;-65
2024/02/12 04:48:27;;;;;;;52.08;20.33;;;;;;;;;;5071024;28;20040;-66
2024/02/12 04:50:53;;;;;;;44.33;19.42;;;;;;;;;;5067074;28;20032;-66
2024/02/12 04:53:19;;;;;;;45.47;21.85;;;;;;;;;;5076252;28;20470;-66
2024/02/12 04:55:45;;;;;;;42.50;19.90;;;;;;;;;;5070068;28;20040;-66
2024/02/12 04:58:11;;;;;;;47.25;21.05;;;;;;;;;;5064525;28;20021;-66
2024/02/12 05:00:38;;;;;;;45.33;21.00;;;;;;;;;;5066304;28;20035;-65
2024/02/12 05:03:07;;;;;;;43.38;20.13;;;;;;;;;;5069323;28;20020;-66
2024/02/12 05:05:34;;;;;;;51.13;18.92;;;;;;;;;;5069735;28;20020;-66
2024/02/12 05:08:06;;;;;;;45.00;20.10;;;;;;;;;;5070774;28;20032;-66
2024/02/12 05:10:33;;;;;;;41.60;18.15;;;;;;;;;;5068716;28;20029;-65
2024/02/12 05:12:59;;;;;;;48.83;19.58;;;;;;;;;;5073844;28;20035;-66
2024/02/12 05:15:25;;;;;;;37.20;18.30;;;;;;;;;;5067564;28;20032;-65
2024/02/12 05:17:55;;;;;;;42.00;18.25;;;;;;;;;;5071452;28;20475;-65
2024/02/12 05:23:09;;;;;;;40.78;17.77;;;;;;;;;;5068558;28;20039;-65
2024/02/12 05:25:35;;;;;;;45.70;18.35;;;;;;;;;;5067151;28;20020;-66
2024/02/12 05:28:01;;;;;;;41.65;18.23;;;;;;;;;;5065501;28;20029;-66
2024/02/12 05:30:27;;;;;;;39.67;19.58;;;;;;;;;;5070099;28;20038;-66
2024/02/12 05:32:53;;;;;;;56.15;19.27;;;;;;;;;;5069323;28;20032;-66
2024/02/12 05:35:19;;;;;;;35.17;16.63;;;;;;;;;;5073531;28;20397;-65
2024/02/12 05:37:45;;;;;;;46.47;19.83;;;;;;;;;;5071848;28;20096;-66
2024/02/12 05:40:11;;;;;;;36.13;18.58;;;;;;;;;;5078753;28;20025;-65
2024/02/12 05:42:37;;;;;;;42.05;18.65;;;;;;;;;;5060484;28;20024;-66
2024/02/12 05:45:05;;;;;;;40.83;18.35;;;;;;;;;;5072764;28;20474;-66
2024/02/12 05:47:31;;;;;;;45.40;18.13;;;;;;;;;;5066699;28;20029;-65
2024/02/12 05:49:57;;;;;;;39.75;18.23;;;;;;;;;;5069634;28;20047;-65
2024/02/12 05:52:23;;;;;;;39.53;19.45;;;;;;;;;;5066357;28;20028;-65
2024/02/12 05:54:49;;;;;;;48.35;21.02;;;;;;;;;;5069947;28;20031;-65
2024/02/12 05:57:15;;;;;;;42.75;18.48;;;;;;;;;;5064121;28;20028;-65
2024/02/12 05:59:41;;;;;;;46.50;20.05;;;;;;;;;;5052233;28;20012;-66
2024/02/12 06:02:07;;;;;;;51.53;19.20;;;;;;;;;;5064631;28;20044;-65
2024/02/12 06:04:33;;;;;;;45.40;19.83;;;;;;;;;;5069807;28;20538;-65
2024/02/12 06:06:59;;;;;;;45.28;21.13;;;;;;;;;;5065146;28;20028;-65
2024/02/12 06:09:25;;;;;;;47.33;20.05;;;;;;;;;;5073573;28;20135;-65
2024/02/12 06:11:51;;;;;;;44.92;20.90;;;;;;;;;;5069433;28;20067;-65
2024/02/12 06:14:18;;;;;;;41.90;17.88;;;;;;;;;;5072703;28;20024;-66
2024/02/12 06:16:44;;;;;;;44.63;20.42;;;;;;;;;;5071224;28;20025;-66
2024/02/12 06:19:10;;;;;;;51.58;20.50;;;;;;;;;;5068582;28;20035;-66
2024/02/12 06:21:36;;;;;;;47.88;22.23;;;;;;;;;;5069548;28;20023;-66
2024/02/12 06:24:05;;;;;;;70.70;21.45;;;;;;;;;;5062224;28;20040;-66
2024/02/12 06:26:33;;;;;;;53.55;22.27;;;;;;;;;;5066767;28;20111;-65
2024/02/12 06:28:59;;;;;;;44.40;20.55;;;;;;;;;;5080550;28;20071;-65
2024/02/12 06:31:25;;;;;;;47.88;21.25;;;;;;;;;;5053634;28;20122;-65
2024/02/12 06:33:51;;;;;;;53.33;21.92;;;;;;;;;;5071539;28;20043;-65
2024/02/12 06:36:17;;;;;;;49.15;21.30;;;;;;;;;;5062767;28;20036;-65
2024/02/12 06:38:44;;;;;;;52.50;20.00;;;;;;;;;;5065665;28;20025;-65
2024/02/12 06:41:10;;;;;;;56.08;20.10;;;;;;;;;;5075134;28;20622;-65
2024/02/12 06:43:36;;;;;;;44.63;20.33;;;;;;;;;;5067228;28;20052;-65
2024/02/12 06:46:02;;;;;;;59.10;20.75;;;;;;;;;;5074943;28;20025;-65
2024/02/12 06:48:28;;;;;;;46.13;19.95;;;;;;;;;;5075870;28;20076;-65
2024/02/12 06:50:54;;;;;;;46.97;20.52;;;;;;;;;;5073714;28;20056;-66
2024/02/12 06:53:20;;;;;;;48.35;19.92;;;;;;;;;;5071257;28;20024;-66
2024/02/12 06:55:46;;;;;;;45.40;19.63;;;;;;;;;;5071472;28;20390;-65
2024/02/12 06:58:12;;;;;;;49.83;20.98;;;;;;;;;;5074211;28;20016;-66
2024/02/12 07:00:38;;;;;;;59.65;21.75;;;;;;;;;;5064607;28;20032;-66
2024/02/12 07:03:07;;;;;;;50.63;20.58;;;;;;;;;;5068622;28;20443;-65
2024/02/12 07:05:33;;;;;;;48.55;21.33;;;;;;;;;;5069123;28;20047;-66
2024/02/12 07:07:59;;;;;;;50.25;21.42;;;;;;;;;;5068472;28;20035;-65
2024/02/12 07:10:25;;;;;;;45.08;19.10;;;;;;;;;;5073656;28;20024;-65
2024/02/12 07:12:51;;;;;;;38.33;19.25;;;;;;;;;;5069144;28;20040;-65
2024/02/12 07:15:17;;;;;;;42.20;18.85;;;;;;;;;;5074760;28;20084;-65
2024/02/12 07:17:43;;;;;;;47.40;19.40;;;;;;;;;;5075859;28;20021;-65
2024/02/12 07:20:09;;;;;;;52.72;18.88;;;;;;;;;;5079238;28;20059;-65
2024/02/12 07:22:38;;;;;;;44.13;19.83;;;;;;;;;;5082312;28;20043;-65
2024/02/12 07:25:04;;;;;;;48.95;18.77;;;;;;;;;;5060550;28;20032;-65
2024/02/12 07:27:31;;;;;;;42.13;20.02;;;;;;;;;;5085585;28;20036;-65
2024/02/12 07:29:57;;;;;;;37.78;17.98;;;;;;;;;;5082763;28;20505;-66
2024/02/12 07:32:23;;;;;;;46.38;20.42;;;;;;;;;;5083555;28;20031;-65
2024/02/12 07:34:50;;;;;;;52.35;21.23;;;;;;;;;;5079038;28;20059;-65
2024/02/12 07:37:16;;;;;;;44.38;18.95;;;;;;;;;;5078920;28;20048;-65
2024/02/12 07:39:42;;;;;;;48.55;21.98;;;;;;;;;;5083293;28;20024;-65
2024/02/12 07:42:09;;;;;;;52.72;21.58;;;;;;;;;;5089052;28;20142;-65
2024/02/12 07:44:35;;;;;;;56.25;21.65;;;;;;;;;;5076883;28;20044;-65
2024/02/12 07:47:03;;;;;;;48.67;20.40;;;;;;;;;;5064513;28;20037;-65
2024/02/12 07:49:31;;;;;;;44.83;20.33;;;;;;;;;;5074459;28;20029;-66
2024/02/12 07:51:59;;;;;;;57.03;22.25;;;;;;;;;;5068173;28;20032;-65
2024/02/12 07:54:25;;;;;;;48.05;22.10;;;;;;;;;;5071166;28;20055;-65
2024/02/12 07:56:52;;;;;;;53.35;22.63;;;;;;;;;;5072056;28;20052;-66
2024/02/12 07:59:18;;;;;;;46.70;21.15;;;;;;;;;;5075050;28;20494;-66
2024/02/12 08:01:43;;;;;;;47.25;19.95;;;;;;;;;;5070775;28;20059;-65
2024/02/12 08:04:09;;;;;;;46.05;18.08;;;;;;;;;;5068188;28;20028;-65
2024/02/12 08:06:36;;;;;;;42.63;17.92;;;;;;;;;;5071731;28;20112;-65
2024/02/12 08:09:03;;;;;;;44.05;20.02;;;;;;;;;;5051432;28;20028;-65
2024/02/12 08:11:29;;;;;;;41.75;17.50;;;;;;;;;;5065420;28;20032;-65
2024/02/12 08:13:56;;;;;;;36.80;16.83;;;;;;;;;;5068088;28;20025;-65
2024/02/12 08:16:22;;;;;;;43.90;18.48;;;;;;;;;;5069313;28;20025;-65
2024/02/12 08:18:48;;;;;;;48.22;18.17;;;;;;;;;;5067043;28;20040;-66
2024/02/12 08:21:15;;;;;;;43.28;18.85;;;;;;;;;;5067764;28;20029;-65
2024/02/12 08:23:41;;;;;;;30.00;15.25;;;;;;;;;;5071810;28;20016;-66
2024/02/12 08:26:07;;;;;;;45.78;16.08;;;;;;;;;;5068454;28;20029;-65
2024/02/12 08:28:33;;;;;;;35.78;17.48;;;;;;;;;;5070093;28;20025;-65
2024/02/12 08:31:02;;;;;;;39.33;17.52;;;;;;;;;;5069377;28;20036;-65
2024/02/12 08:33:28;;;;;;;40.22;17.55;;;;;;;;;;5052836;28;20024;-65
2024/02/12 08:35:54;;;;;;;44.13;17.65;;;;;;;;;;5074052;28;20482;-65
2024/02/12 08:38:21;;;;;;;46.45;18.10;;;;;;;;;;5056358;28;20025;-66
2024/02/12 08:40:50;;;;;;;45.80;18.42;;;;;;;;;;5070000;28;20417;-65
2024/02/12 08:43:15;;;;;;;52.60;18.90;;;;;;;;;;5071146;28;20016;-65
2024/02/12 08:45:41;;;;;;;40.88;18.15;;;;;;;;;;5070880;28;20074;-61
2024/02/12 08:48:07;;;;;;;48.55;18.95;;;;;;;;;;5068852;28;20028;-60
2024/02/12 08:50:34;;;;;;;44.03;19.42;;;;;;;;;;5068607;28;20033;-60
2024/02/12 08:53:01;;;;;;;41.58;18.50;;;;;;;;;;5069478;28;20036;-59
2024/02/12 08:55:27;;;;;;;38.60;16.77;;;;;;;;;;5067049;28;20461;-60
2024/02/12 08:57:54;;;;;;;39.53;16.52;;;;;;;;;;5068421;28;20024;-60
2024/02/12 09:00:21;;;;;;;36.28;16.15;;;;;;;;;;5068198;28;20042;-60
2024/02/12 09:02:47;;;;;;;36.35;15.35;;;;;;;;;;5068730;28;20398;-59
2024/02/12 09:05:13;;;;;;;34.13;14.82;;;;;;;;;;5060928;28;20074;-60
2024/02/12 09:07:43;;;;;;;32.95;15.25;;;;;;;;;;5066060;28;20130;-59
2024/02/12 09:10:11;;;;;;;44.00;15.38;;;;;;;;;;5069111;28;20045;-60
2024/02/12 09:12:40;;;;;;;33.80;13.48;;;;;;;;;;5063747;28;20099;-60
2024/02/12 09:15:07;;;;;;;25.55;12.13;;;;;;;;;;5073209;28;20036;-60
2024/02/12 09:17:34;;;;;;;25.00;12.15;;;;;;;;;;5070059;28;20358;-60
2024/02/12 09:20:00;;;;;;;28.20;12.82;;;;;;;;;;5063033;28;20025;-60
2024/02/12 09:22:26;;;;;;;25.67;12.40;;;;;;;;;;5071166;28;20017;-57
2024/02/12 09:24:52;;;;;;;31.10;12.70;;;;;;;;;;5066463;28;20023;-60
2024/02/12 09:27:18;;;;;;;20.67;10.07;;;;;;;;;;5073038;28;20042;-61
2024/02/12 09:29:47;;;;;;;29.98;11.20;;;;;;;;;;5075037;28;20119;-60
2024/02/12 09:32:13;;;;;;;29.98;10.10;;;;;;;;;;5063030;28;20494;-60
2024/02/12 09:34:39;;;;;;;27.17;10.40;;;;;;;;;;5070063;28;20428;-60
2024/02/12 09:37:05;;;;;;;27.20;10.82;;;;;;;;;;5071835;28;20038;-60
2024/02/12 09:39:33;;;;;;;22.00;10.82;;;;;;;;;;5052075;28;20024;-60
2024/02/12 09:42:01;;;;;;;24.90;10.65;;;;;;;;;;5068311;28;20024;-60
2024/02/12 09:44:29;;;;;;;21.25;10.32;;;;;;;;;;5070320;28;20031;-60
2024/02/12 09:47:00;;;;;;;18.10;9.23;;;;;;;;;;5068440;28;20028;-61
2024/02/12 09:49:26;;;;;;;23.50;8.52;;;;;;;;;;5068814;28;20035;-60
2024/02/12 09:51:53;;;;;;;16.88;7.72;;;;;;;;;;5072342;28;20512;-60
2024/02/12 09:54:20;;;;;;;20.27;8.48;;;;;;;;;;5068537;28;20398;-59
2024/02/12 09:56:47;;;;;;;21.90;8.27;;;;;;;;;;5070724;28;20073;-60
2024/02/12 09:59:13;;;;;;;16.02;7.97;;;;;;;;;;5071868;28;20028;-61
2024/02/12 10:01:40;;;;;;;20.77;8.77;;;;;;;;;;5068368;28;20036;-60
2024/02/12 10:04:06;;;;;;;19.98;8.13;;;;;;;;;;5060259;28;20031;-60
2024/02/12 10:06:32;;;;;;;21.90;8.88;;;;;;;;;;5066668;28;20028;-60
2024/02/12 10:09:08;;;;;;;20.85;9.02;;;;;;;;;;5067528;28;20569;-57
2024/02/12 10:11:34;;;;;;;29.20;9.30;;;;;;;;;;5071745;28;20473;-59
2024/02/12 10:14:03;;;;;;;16.92;8.10;;;;;;;;;;5072349;28;20545;-59
2024/02/12 10:16:28;;;;;;;15.70;7.30;;;;;;;;;;5069727;28;20051;-60
2024/02/12 10:19:03;;;;;;;23.85;8.13;;;;;;;;;;5066769;28;20032;-60
2024/02/12 10:21:29;;;;;;;23.55;6.90;;;;;;;;;;5070007;28;20072;-61
2024/02/12 10:23:55;;;;;;;15.25;6.10;;;;;;;;;;5053617;28;20029;-61
2024/02/12 10:26:24;;;;;;;15.68;6.53;;;;;;;;;;5069161;28;20030;-60
2024/02/12 10:28:54;;;;;;;12.10;6.10;;;;;;;;;;5067214;28;20029;-61
2024/02/12 10:31:22;;;;;;;10.18;5.03;;;;;;;;;;5069129;28;20051;-60
2024/02/12 10:33:49;;;;;;;13.85;5.57;;;;;;;;;;5070063;28;20028;-60
2024/02/12 10:36:18;;;;;;;11.95;4.82;;;;;;;;;;5071990;28;20100;-58
2024/02/12 10:38:44;;;;;;;12.43;3.97;;;;;;;;;;5071103;28;20365;-60
2024/02/12 10:41:16;;;;;;;8.43;4.22;;;;;;;;;;5076341;28;20116;-60
2024/02/12 10:43:43;;;;;;;10.25;3.30;;;;;;;;;;5074856;28;20052;-61
2024/02/12 10:46:09;;;;;;;11.18;4.35;;;;;;;;;;5075668;28;20487;-59
2024/02/12 10:48:38;;;;;;;10.77;4.72;;;;;;;;;;5064995;28;20059;-60
2024/02/12 10:51:04;;;;;;;13.98;4.40;;;;;;;;;;5066991;28;20040;-61
2024/02/12 10:53:30;;;;;;;11.25;3.92;;;;;;;;;;5071397;28;20604;-60
2024/02/12 10:55:57;;;;;;;13.38;3.38;;;;;;;;;;5070241;28;20039;-60
2024/02/12 10:58:23;;;;;;;10.18;4.43;;;;;;;;;;5067035;28;20135;-60
2024/02/12 11:00:58;;;;;;;11.63;4.13;;;;;;;;;;5068454;28;20031;-60
2024/02/12 11:04:00;;;;;;;11.10;4.22;;;;;;;;;;5072568;28;20510;-61
2024/02/12 11:06:27;;;;;;;12.10;3.63;;;;;;;;;;4991966;28;20447;-60
2024/02/12 11:08:53;;;;;;;6.82;2.35;;;;;;;;;;5053370;28;20063;-60
2024/02/12 11:11:20;;;;;;;7.57;2.58;;;;;;;;;;5058613;28;20389;-60
2024/02/12 11:13:52;;;;;;;15.88;2.80;;;;;;;;;;5067226;28;20033;-60
2024/02/12 11:16:20;;;;;;;11.45;2.80;;;;;;;;;;5068548;28;20021;-60
2024/02/12 11:18:53;;;;;;;8.30;3.10;;;;;;;;;;5070459;28;20474;-60
2024/02/12 11:21:22;;;;;;;5.57;2.75;;;;;;;;;;5070675;28;20109;-66
2024/02/12 11:23:50;;;;;;;9.05;3.33;;;;;;;;;;5068506;28;20323;-66
2024/02/12 11:26:17;;;;;;;9.60;3.20;;;;;;;;;;5069111;28;20537;-65
2024/02/12 11:28:48;;;;;;;8.90;3.10;;;;;;;;;;5068763;28;20063;-65
2024/02/12 11:31:14;;;;;;;8.65;2.95;;;;;;;;;;5068736;28;20646;-67
2024/02/12 11:33:42;;;;;;;10.27;3.92;;;;;;;;;;5071196;28;20082;-64
2024/02/12 11:36:08;;;;;;;8.63;2.65;;;;;;;;;;5065125;28;20113;-66
2024/02/12 11:38:38;;;;;;;9.07;3.22;;;;;;;;;;5064523;28;20024;-67
2024/02/12 11:41:07;;;;;;;11.27;3.22;;;;;;;;;;5063530;28;20039;-67
2024/02/12 11:43:33;;;;;;;12.00;3.10;;;;;;;;;;5063420;28;20036;-68
2024/02/12 11:46:02;;;;;;;11.15;2.90;;;;;;;;;;5065184;28;20036;-67
2024/02/12 11:48:31;;;;;;;12.88;2.80;;;;;;;;;;5066301;28;20062;-67
2024/02/12 11:50:57;;;;;;;11.73;2.78;;;;;;;;;;5069557;28;20418;-67
2024/02/12 11:53:23;;;;;;;9.68;3.10;;;;;;;;;;5063515;28;20029;-67
2024/02/12 11:55:49;;;;;;;11.80;3.53;;;;;;;;;;5071104;28;20433;-66
2024/02/12 11:58:15;;;;;;;9.90;3.28;;;;;;;;;;5070252;28;20031;-67
2024/02/12 12:00:42;;;;;;;10.18;2.45;;;;;;;;;;5071200;28;20024;-66
2024/02/12 12:03:08;;;;;;;8.27;2.33;;;;;;;;;;5068056;28;20028;-66
2024/02/12 12:05:37;;;;;;;8.02;2.92;;;;;;;;;;5068418;28;20504;-68
2024/02/12 12:08:03;;;;;;;10.00;2.00;;;;;;;;;;5068875;28;20021;-66
2024/02/12 12:10:29;;;;;;;12.15;2.15;;;;;;;;;;5069169;28;20028;-67
2024/02/12 12:12:58;;;;;;;10.23;2.75;;;;;;;;;;5067610;28;20031;-66
2024/02/12 12:15:25;;;;;;;7.25;2.08;;;;;;;;;;5064981;28;20024;-68
2024/02/12 12:17:52;;;;;;;8.50;2.40;;;;;;;;;;5062019;28;20111;-68
2024/02/12 12:20:18;;;;;;;7.63;2.17;;;;;;;;;;5062611;28;20033;-68
2024/02/12 12:22:44;;;;;;;12.75;2.13;;;;;;;;;;5070362;28;20033;-68
2024/02/12 12:25:11;;;;;;;16.35;2.80;;;;;;;;;;5047233;28;20040;-68
2024/02/12 12:27:38;;;;;;;4.72;1.50;;;;;;;;;;5064248;28;20060;-67
2024/02/12 12:30:14;;;;;;;10.15;2.00;;;;;;;;;;5063792;28;20025;-67
2024/02/12 12:32:41;;;;;;;7.38;2.25;;;;;;;;;;5063588;28;20111;-66
2024/02/12 12:35:08;;;;;;;9.20;1.42;;;;;;;;;;5061289;28;20425;-66
2024/02/12 12:37:35;;;;;;;5.30;1.88;;;;;;;;;;5064965;28;20486;-66
2024/02/12 12:40:08;;;;;;;7.43;1.40;;;;;;;;;;5065625;28;20059;-66
2024/02/12 12:42:34;;;;;;;9.77;2.03;;;;;;;;;;5070105;28;20054;-66
2024/02/12 12:45:00;;;;;;;6.45;1.73;;;;;;;;;;5069384;28;20113;-68
2024/02/12 12:47:26;;;;;;;17.42;2.10;;;;;;;;;;5063559;28;20021;-68
2024/02/12 12:49:56;;;;;;;11.27;1.98;;;;;;;;;;5066655;28;20033;-66
2024/02/12 12:52:22;;;;;;;10.25;1.58;;;;;;;;;;5064879;28;20390;-66
2024/02/12 12:54:48;;;;;;;8.95;1.85;;;;;;;;;;5048785;28;20024;-67
2024/02/12 12:57:16;;;;;;;8.35;1.58;;;;;;;;;;5060087;28;20033;-67
2024/02/12 12:59:43;;;;;;;8.52;1.70;;;;;;;;;;5059266;28;20013;-66
2024/02/12 13:02:09;;;;;;;11.10;1.77;;;;;;;;;;5066975;28;20154;-66
2024/02/12 13:04:35;;;;;;;10.20;1.85;;;;;;;;;;5061403;28;20482;-67
2024/02/12 13:07:03;;;;;;;13.63;1.50;;;;;;;;;;5059168;28;20029;-66
2024/02/12 13:09:30;;;;;;;7.40;2.00;;;;;;;;;;5060920;28;20752;-66
2024/02/12 13:11:56;;;;;;;5.05;1.30;;;;;;;;;;5064088;28;20058;-66
2024/02/12 13:14:22;;;;;;;6.25;1.45;;;;;;;;;;5064666;28;20032;-67
2024/02/12 13:16:48;;;;;;;15.93;2.00;;;;;;;;;;5065168;28;20040;-66
2024/02/12 13:19:14;;;;;;;7.40;1.73;;;;;;;;;;5047579;28;20035;-66
2024/02/12 13:21:40;;;;;;;8.82;2.20;;;;;;;;;;5064129;28;20139;-66
2024/02/12 13:24:10;;;;;;;9.43;1.83;;;;;;;;;;5070213;28;20046;-66
2024/02/12 13:26:36;;;;;;;12.43;2.05;;;;;;;;;;5061720;28;21450;-66
2024/02/12 13:29:06;;;;;;;12.75;1.77;;;;;;;;;;5064913;28;20552;-65
2024/02/12 13:31:34;;;;;;;7.68;1.95;;;;;;;;;;5071538;28;20102;-65
2024/02/12 13:34:01;;;;;;;13.23;1.92;;;;;;;;;;5066173;28;20442;-66
2024/02/12 13:36:28;;;;;;;18.40;1.75;;;;;;;;;;5063663;28;20025;-66
2024/02/12 13:38:55;;;;;;;9.85;1.50;;;;;;;;;;5065542;28;20031;-66
2024/02/12 13:41:22;;;;;;;12.32;1.48;;;;;;;;;;5072112;28;20131;-66
2024/02/12 13:43:48;;;;;;;9.05;1.60;;;;;;;;;;5065267;28;20510;-66
2024/02/12 13:46:14;;;;;;;9.90;1.27;;;;;;;;;;5061713;28;20495;-65
2024/02/12 13:48:43;;;;;;;7.18;1.75;;;;;;;;;;5065650;28;20131;-65
2024/02/12 13:51:09;;;;;;;10.75;2.45;;;;;;;;;;5068965;28;20470;-63
2024/02/12 13:53:35;;;;;;;16.00;2.38;;;;;;;;;;5066969;28;20028;-65
2024/02/12 13:56:01;;;;;;;8.23;2.50;;;;;;;;;;5060064;28;20029;-66
2024/02/12 13:58:28;;;;;;;11.65;2.20;;;;;;;;;;5058221;28;20440;-66
2024/02/12 14:00:54;;;;;;;12.48;2.13;;;;;;;;;;5062163;28;20763;-67
2024/02/12 14:03:20;;;;;;;4.97;1.67;;;;;;;;;;5065984;28;20418;-67
2024/02/12 14:05:46;;;;;;;5.85;1.90;;;;;;;;;;5068693;28;20024;-66
2024/02/12 14:08:12;;;;;;;7.70;2.03;;;;;;;;;;5062809;28;20032;-66
2024/02/12 14:10:38;;;;;;;10.20;3.58;;;;;;;;;;5061526;28;20115;-66
2024/02/12 14:13:04;;;;;;;18.80;3.65;;;;;;;;;;5065674;28;20029;-67
2024/02/12 14:15:30;;;;;;;14.77;2.60;;;;;;;;;;5062650;28;20441;-66
2024/02/12 14:17:56;;;;;;;6.10;1.85;;;;;;;;;;5068312;28;20489;-66
2024/02/12 14:20:25;;;;;;;12.00;2.13;;;;;;;;;;5058787;28;20397;-66
2024/02/12 14:22:52;;;;;;;10.25;2.10;;;;;;;;;;5062568;28;20028;-66
2024/02/12 14:25:18;;;;;;;14.23;2.35;;;;;;;;;;5056094;28;20037;-65
2024/02/12 14:27:45;;;;;;;15.57;2.33;;;;;;;;;;5064433;28;20067;-68
2024/02/12 14:30:11;;;;;;;13.30;2.42;;;;;;;;;;5066976;28;20036;-65
2024/02/12 14:32:38;;;;;;;8.20;2.50;;;;;;;;;;5058400;28;20052;-65
2024/02/12 14:35:04;;;;;;;9.85;2.28;;;;;;;;;;5064188;28;20024;-66
2024/02/12 14:37:32;;;;;;;8.35;2.70;;;;;;;;;;5065227;28;20035;-65